Mansfield, IL (61854)

10:01 PM CST on February 24, 2017 (GMT -0600)
Dale Valley Subdivision | | Change Station

Elev 781 ft 40.21 °N, 88.42 °W | Updated 2 minutes ago

Overcast
Overcast
40.8 °F
Feels Like 35 °F
N
9.6
Wind Variable Wind from WSW
Gusts 15.0 mph

Today
High -- | Low -- °F
--% Chance of Precip.
Yesterday
High -- | Low -- °F
Precip. -- in
Pressure 29.67 in
Visibility 10.0 miles
Clouds Few 3100 ft
Mostly Cloudy 4800 ft
Overcast 6000 ft
Windchill 35 °F
Dew Point 35 °F
Humidity 81%
Rainfall 0.00 in
Snow Depth Not available.
6:34 AM 5:40 PM
Waning Crescent, 3% visible
METAR KCMI 250353Z 25022G29KT 10SM FEW031 BKN048 OVC060 06/00 A2967 RMK AO2 PK WND 25029/0349 RAB15E29 SLP046 P0000 T00610000
Pressure 29.67 in
Visibility 10.0 miles
Clouds Few 3100 ft
Mostly Cloudy 4800 ft
Overcast 6000 ft
Windchill 35 °F
Dew Point 35 °F
Humidity 81%
Rainfall 0.00 in
Snow Depth Not available.
6:34 AM 5:40 PM
Waning Crescent, 3% visible
METAR KCMI 250353Z 25022G29KT 10SM FEW031 BKN048 OVC060 06/00 A2967 RMK AO2 PK WND 25029/0349 RAB15E29 SLP046 P0000 T00610000

Get Your Daily Forecast Email!

Thanks for signing up!

Be on the lookout for a verification email in your inbox.

You'll start receiving the daily forecast at 8 AM.

×

10-Day Weather Forecast

Almanac

Astronomy

Feb. 24, 2017 Rise Set
Actual Time
Civil Twilight
Nautical Twilight
Astronomical Twilight
Moon
Length of Visible Light
Length of Day
Tomorrow will be .
, % of the Moon is Illuminated

Today's Extremes

State Highs State Lows

Community

WunderPhotos

Upload Photos

1,962,540 photos uploaded!

WunderBlog® & News

Nearby

Air Quality

  Air Quality AQ Index Pollutant
Not available.

Snow Depth

Station Depth Elevation

Earthquake Activity

City Distance Mag. Time & Date
Minimum magnitude displayed is 2.5.

Coastal Water Temperatures

Place Temperature

Stations

Nearby Weather Stations

Station Location Temp. Windchill Dew Point Humidity Wind Precip. Elev Updated Type
                   

Watches & Warnings

There are currently no watches in effect.